sensor_id;sensor_type;location;lat;lon;timestamp;P1;durP1;ratioP1;P2;durP2;ratioP2
5460;SDS011;2753;49.196;8.286;2022-09-13T00:01:42;11.73;;;3.30;;
5460;SDS011;2753;49.196;8.286;2022-09-13T00:04:07;3.30;;;2.90;;
5460;SDS011;2753;49.196;8.286;2022-09-13T00:06:33;4.23;;;3.83;;
5460;SDS011;2753;49.196;8.286;2022-09-13T00:08:59;6.00;;;3.50;;
5460;SDS011;2753;49.196;8.286;2022-09-13T00:11:26;4.30;;;3.53;;
5460;SDS011;2753;49.196;8.286;2022-09-13T00:13:54;10.00;;;3.53;;
5460;SDS011;2753;49.196;8.286;2022-09-13T00:16:21;15.67;;;3.70;;
5460;SDS011;2753;49.196;8.286;2022-09-13T00:18:49;10.80;;;3.27;;
5460;SDS011;2753;49.196;8.286;2022-09-13T00:21:16;4.83;;;3.60;;
5460;SDS011;2753;49.196;8.286;2022-09-13T00:23:44;7.63;;;3.80;;
5460;SDS011;2753;49.196;8.286;2022-09-13T00:26:19;12.20;;;3.93;;
5460;SDS011;2753;49.196;8.286;2022-09-13T00:28:50;7.83;;;4.10;;
5460;SDS011;2753;49.196;8.286;2022-09-13T00:31:17;4.23;;;3.90;;
5460;SDS011;2753;49.196;8.286;2022-09-13T00:33:43;4.57;;;3.50;;
5460;SDS011;2753;49.196;8.286;2022-09-13T00:36:10;10.03;;;4.90;;
5460;SDS011;2753;49.196;8.286;2022-09-13T00:38:37;8.23;;;3.80;;
5460;SDS011;2753;49.196;8.286;2022-09-13T00:41:04;9.33;;;3.97;;
5460;SDS011;2753;49.196;8.286;2022-09-13T00:46:11;3.80;;;3.50;;
5460;SDS011;2753;49.196;8.286;2022-09-13T00:48:41;5.77;;;4.00;;
5460;SDS011;2753;49.196;8.286;2022-09-13T00:51:10;3.57;;;3.27;;
5460;SDS011;2753;49.196;8.286;2022-09-13T00:53:37;4.60;;;3.60;;
5460;SDS011;2753;49.196;8.286;2022-09-13T00:58:49;8.40;;;3.70;;
5460;SDS011;2753;49.196;8.286;2022-09-13T01:01:20;8.33;;;3.63;;
5460;SDS011;2753;49.196;8.286;2022-09-13T01:03:50;4.23;;;3.80;;
5460;SDS011;2753;49.196;8.286;2022-09-13T01:06:19;19.23;;;3.90;;
5460;SDS011;2753;49.196;8.286;2022-09-13T01:08:49;7.03;;;3.33;;
5460;SDS011;2753;49.196;8.286;2022-09-13T01:12:02;9.40;;;3.70;;
5460;SDS011;2753;49.196;8.286;2022-09-13T01:14:06;9.53;;;3.90;;
5460;SDS011;2753;49.196;8.286;2022-09-13T01:16:33;5.83;;;3.83;;
5460;SDS011;2753;49.196;8.286;2022-09-13T01:18:59;6.73;;;3.70;;
5460;SDS011;2753;49.196;8.286;2022-09-13T01:30:13;4.17;;;3.40;;
5460;SDS011;2753;49.196;8.286;2022-09-13T01:46:52;7.77;;;4.40;;
5460;SDS011;2753;49.196;8.286;2022-09-13T01:57:47;5.93;;;3.90;;
5460;SDS011;2753;49.196;8.286;2022-09-13T02:00:27;8.70;;;4.40;;
5460;SDS011;2753;49.196;8.286;2022-09-13T02:03:09;8.47;;;3.77;;
5460;SDS011;2753;49.196;8.286;2022-09-13T02:11:08;3.97;;;3.67;;
5460;SDS011;2753;49.196;8.286;2022-09-13T02:13:38;4.33;;;3.40;;
5460;SDS011;2753;49.196;8.286;2022-09-13T02:16:12;4.23;;;3.40;;
5460;SDS011;2753;49.196;8.286;2022-09-13T02:18:46;11.00;;;3.50;;
5460;SDS011;2753;49.196;8.286;2022-09-13T02:21:21;3.90;;;3.60;;
5460;SDS011;2753;49.196;8.286;2022-09-13T02:23:53;6.30;;;4.50;;
5460;SDS011;2753;49.196;8.286;2022-09-13T02:26:41;4.83;;;3.67;;
5460;SDS011;2753;49.196;8.286;2022-09-13T02:29:10;3.90;;;3.50;;
5460;SDS011;2753;49.196;8.286;2022-09-13T02:32:42;4.00;;;3.70;;
5460;SDS011;2753;49.196;8.286;2022-09-13T02:34:44;6.87;;;4.67;;
5460;SDS011;2753;49.196;8.286;2022-09-13T02:37:12;4.93;;;3.80;;
5460;SDS011;2753;49.196;8.286;2022-09-13T02:39:40;14.73;;;4.30;;
5460;SDS011;2753;49.196;8.286;2022-09-13T02:44:45;4.30;;;3.70;;
5460;SDS011;2753;49.196;8.286;2022-09-13T02:56:34;4.07;;;3.77;;
5460;SDS011;2753;49.196;8.286;2022-09-13T02:59:14;7.13;;;4.20;;
5460;SDS011;2753;49.196;8.286;2022-09-13T03:01:44;17.03;;;4.03;;
5460;SDS011;2753;49.196;8.286;2022-09-13T03:04:16;7.50;;;4.00;;
5460;SDS011;2753;49.196;8.286;2022-09-13T03:06:42;9.13;;;3.93;;
5460;SDS011;2753;49.196;8.286;2022-09-13T03:09:08;8.73;;;3.43;;
5460;SDS011;2753;49.196;8.286;2022-09-13T03:11:50;3.73;;;3.43;;
5460;SDS011;2753;49.196;8.286;2022-09-13T03:15:00;5.00;;;3.87;;
5460;SDS011;2753;49.196;8.286;2022-09-13T03:26:16;6.53;;;3.80;;
5460;SDS011;2753;49.196;8.286;2022-09-13T03:41:03;5.57;;;5.07;;
5460;SDS011;2753;49.196;8.286;2022-09-13T03:45:57;10.73;;;4.90;;
5460;SDS011;2753;49.196;8.286;2022-09-13T03:48:25;7.53;;;4.70;;
5460;SDS011;2753;49.196;8.286;2022-09-13T03:50:52;4.30;;;3.90;;
5460;SDS011;2753;49.196;8.286;2022-09-13T03:53:20;6.70;;;4.23;;
5460;SDS011;2753;49.196;8.286;2022-09-13T03:55:49;12.83;;;4.80;;
5460;SDS011;2753;49.196;8.286;2022-09-13T03:58:16;8.93;;;3.63;;
5460;SDS011;2753;49.196;8.286;2022-09-13T04:00:43;3.97;;;3.57;;
5460;SDS011;2753;49.196;8.286;2022-09-13T04:03:09;4.97;;;3.50;;
5460;SDS011;2753;49.196;8.286;2022-09-13T04:05:37;7.70;;;3.83;;
5460;SDS011;2753;49.196;8.286;2022-09-13T04:08:03;6.83;;;3.77;;
5460;SDS011;2753;49.196;8.286;2022-09-13T04:10:30;4.93;;;4.27;;
5460;SDS011;2753;49.196;8.286;2022-09-13T04:12:57;4.53;;;3.80;;
5460;SDS011;2753;49.196;8.286;2022-09-13T04:15:24;6.23;;;3.60;;
5460;SDS011;2753;49.196;8.286;2022-09-13T04:17:50;12.13;;;4.33;;
5460;SDS011;2753;49.196;8.286;2022-09-13T04:20:16;5.23;;;3.20;;
5460;SDS011;2753;49.196;8.286;2022-09-13T04:22:42;5.87;;;3.50;;
5460;SDS011;2753;49.196;8.286;2022-09-13T04:25:07;3.73;;;3.40;;
5460;SDS011;2753;49.196;8.286;2022-09-13T04:27:33;4.23;;;3.93;;
5460;SDS011;2753;49.196;8.286;2022-09-13T04:30:02;9.63;;;3.70;;
5460;SDS011;2753;49.196;8.286;2022-09-13T04:32:28;6.80;;;3.60;;
5460;SDS011;2753;49.196;8.286;2022-09-13T04:34:54;7.77;;;4.00;;
5460;SDS011;2753;49.196;8.286;2022-09-13T04:37:19;5.80;;;3.50;;
5460;SDS011;2753;49.196;8.286;2022-09-13T04:39:45;5.20;;;4.03;;
5460;SDS011;2753;49.196;8.286;2022-09-13T04:42:11;12.03;;;4.60;;
5460;SDS011;2753;49.196;8.286;2022-09-13T04:44:37;4.40;;;3.80;;
5460;SDS011;2753;49.196;8.286;2022-09-13T04:47:03;6.70;;;3.70;;
5460;SDS011;2753;49.196;8.286;2022-09-13T04:49:30;6.57;;;3.90;;
5460;SDS011;2753;49.196;8.286;2022-09-13T04:51:56;8.23;;;4.00;;
5460;SDS011;2753;49.196;8.286;2022-09-13T04:54:21;4.30;;;4.00;;
5460;SDS011;2753;49.196;8.286;2022-09-13T04:56:47;5.20;;;4.00;;
5460;SDS011;2753;49.196;8.286;2022-09-13T04:59:13;7.70;;;4.53;;
5460;SDS011;2753;49.196;8.286;2022-09-13T05:01:40;5.60;;;4.30;;
5460;SDS011;2753;49.196;8.286;2022-09-13T05:04:06;7.10;;;4.17;;
5460;SDS011;2753;49.196;8.286;2022-09-13T05:06:33;5.07;;;4.57;;
5460;SDS011;2753;49.196;8.286;2022-09-13T05:08:59;4.30;;;3.90;;
5460;SDS011;2753;49.196;8.286;2022-09-13T05:11:25;7.00;;;4.57;;
5460;SDS011;2753;49.196;8.286;2022-09-13T05:13:54;5.67;;;4.67;;
5460;SDS011;2753;49.196;8.286;2022-09-13T05:16:22;7.97;;;4.87;;
5460;SDS011;2753;49.196;8.286;2022-09-13T05:18:49;7.10;;;4.83;;
5460;SDS011;2753;49.196;8.286;2022-09-13T05:21:15;5.23;;;4.10;;
5460;SDS011;2753;49.196;8.286;2022-09-13T05:23:42;5.60;;;5.10;;
5460;SDS011;2753;49.196;8.286;2022-09-13T05:26:08;5.73;;;5.10;;
5460;SDS011;2753;49.196;8.286;2022-09-13T05:28:34;5.90;;;4.60;;
5460;SDS011;2753;49.196;8.286;2022-09-13T05:31:22;5.53;;;4.07;;
5460;SDS011;2753;49.196;8.286;2022-09-13T05:33:51;5.40;;;4.43;;
5460;SDS011;2753;49.196;8.286;2022-09-13T05:36:19;9.23;;;5.23;;
5460;SDS011;2753;49.196;8.286;2022-09-13T05:38:44;5.10;;;4.40;;
5460;SDS011;2753;49.196;8.286;2022-09-13T05:41:10;6.70;;;4.87;;
5460;SDS011;2753;49.196;8.286;2022-09-13T05:43:36;10.67;;;4.80;;
5460;SDS011;2753;49.196;8.286;2022-09-13T05:48:32;8.47;;;4.97;;
5460;SDS011;2753;49.196;8.286;2022-09-13T05:51:06;7.73;;;5.10;;
5460;SDS011;2753;49.196;8.286;2022-09-13T05:53:42;5.00;;;4.60;;
5460;SDS011;2753;49.196;8.286;2022-09-13T05:56:11;6.70;;;4.70;;
5460;SDS011;2753;49.196;8.286;2022-09-13T05:58:42;6.13;;;4.70;;
5460;SDS011;2753;49.196;8.286;2022-09-13T06:01:10;12.70;;;5.60;;
5460;SDS011;2753;49.196;8.286;2022-09-13T06:03:36;8.53;;;4.60;;
5460;SDS011;2753;49.196;8.286;2022-09-13T06:06:03;7.60;;;5.50;;
5460;SDS011;2753;49.196;8.286;2022-09-13T06:08:30;11.57;;;4.80;;
5460;SDS011;2753;49.196;8.286;2022-09-13T06:13:23;15.00;;;6.50;;
5460;SDS011;2753;49.196;8.286;2022-09-13T06:15:49;10.03;;;6.47;;
5460;SDS011;2753;49.196;8.286;2022-09-13T06:18:15;10.53;;;6.53;;
5460;SDS011;2753;49.196;8.286;2022-09-13T06:20:41;16.60;;;7.10;;
5460;SDS011;2753;49.196;8.286;2022-09-13T06:23:07;13.93;;;6.33;;
5460;SDS011;2753;49.196;8.286;2022-09-13T06:25:33;7.73;;;7.03;;
5460;SDS011;2753;49.196;8.286;2022-09-13T06:27:59;17.60;;;7.07;;
5460;SDS011;2753;49.196;8.286;2022-09-13T06:30:25;10.60;;;6.77;;
5460;SDS011;2753;49.196;8.286;2022-09-13T06:32:50;11.33;;;6.90;;
5460;SDS011;2753;49.196;8.286;2022-09-13T06:35:16;8.67;;;7.07;;
5460;SDS011;2753;49.196;8.286;2022-09-13T06:37:42;19.30;;;7.00;;
5460;SDS011;2753;49.196;8.286;2022-09-13T06:40:08;15.87;;;8.57;;
5460;SDS011;2753;49.196;8.286;2022-09-13T06:42:34;10.93;;;8.40;;
5460;SDS011;2753;49.196;8.286;2022-09-13T06:45:00;13.27;;;9.00;;
5460;SDS011;2753;49.196;8.286;2022-09-13T06:47:26;18.93;;;9.00;;
5460;SDS011;2753;49.196;8.286;2022-09-13T06:49:52;17.63;;;10.30;;
5460;SDS011;2753;49.196;8.286;2022-09-13T06:52:18;13.70;;;9.47;;
5460;SDS011;2753;49.196;8.286;2022-09-13T06:54:43;9.20;;;8.30;;
5460;SDS011;2753;49.196;8.286;2022-09-13T06:57:09;18.10;;;8.90;;
5460;SDS011;2753;49.196;8.286;2022-09-13T06:59:35;11.10;;;8.77;;
5460;SDS011;2753;49.196;8.286;2022-09-13T07:02:01;11.37;;;8.53;;
5460;SDS011;2753;49.196;8.286;2022-09-13T07:04:27;14.70;;;8.80;;
5460;SDS011;2753;49.196;8.286;2022-09-13T07:06:56;18.10;;;9.20;;
5460;SDS011;2753;49.196;8.286;2022-09-13T07:09:23;13.80;;;9.30;;
5460;SDS011;2753;49.196;8.286;2022-09-13T07:11:50;18.50;;;9.00;;
5460;SDS011;2753;49.196;8.286;2022-09-13T07:14:19;12.47;;;8.90;;
5460;SDS011;2753;49.196;8.286;2022-09-13T07:16:50;10.63;;;8.50;;
5460;SDS011;2753;49.196;8.286;2022-09-13T07:19:20;12.57;;;8.10;;
5460;SDS011;2753;49.196;8.286;2022-09-13T07:21:47;14.20;;;9.10;;
5460;SDS011;2753;49.196;8.286;2022-09-13T07:24:14;15.20;;;10.47;;
5460;SDS011;2753;49.196;8.286;2022-09-13T07:26:41;14.00;;;11.20;;
5460;SDS011;2753;49.196;8.286;2022-09-13T07:29:07;24.00;;;14.80;;
5460;SDS011;2753;49.196;8.286;2022-09-13T07:31:40;21.00;;;18.03;;
5460;SDS011;2753;49.196;8.286;2022-09-13T07:34:10;21.97;;;17.63;;
5460;SDS011;2753;49.196;8.286;2022-09-13T07:36:37;21.27;;;16.17;;
5460;SDS011;2753;49.196;8.286;2022-09-13T07:39:03;24.83;;;17.23;;
5460;SDS011;2753;49.196;8.286;2022-09-13T07:41:30;26.53;;;17.83;;
5460;SDS011;2753;49.196;8.286;2022-09-13T07:43:57;23.87;;;18.30;;
5460;SDS011;2753;49.196;8.286;2022-09-13T07:46:26;19.17;;;15.77;;
5460;SDS011;2753;49.196;8.286;2022-09-13T07:48:53;21.43;;;16.27;;
5460;SDS011;2753;49.196;8.286;2022-09-13T07:51:24;21.80;;;15.47;;
5460;SDS011;2753;49.196;8.286;2022-09-13T07:53:53;19.13;;;13.40;;
5460;SDS011;2753;49.196;8.286;2022-09-13T07:56:30;14.97;;;11.03;;
5460;SDS011;2753;49.196;8.286;2022-09-13T07:59:00;10.93;;;9.83;;
5460;SDS011;2753;49.196;8.286;2022-09-13T08:01:29;11.30;;;8.80;;
5460;SDS011;2753;49.196;8.286;2022-09-13T08:04:02;11.97;;;8.33;;
5460;SDS011;2753;49.196;8.286;2022-09-13T08:06:30;10.60;;;7.47;;
5460;SDS011;2753;49.196;8.286;2022-09-13T08:08:57;13.30;;;7.40;;
5460;SDS011;2753;49.196;8.286;2022-09-13T08:13:50;11.10;;;7.40;;
5460;SDS011;2753;49.196;8.286;2022-09-13T08:16:17;15.80;;;7.67;;
5460;SDS011;2753;49.196;8.286;2022-09-13T08:18:44;8.50;;;7.03;;
5460;SDS011;2753;49.196;8.286;2022-09-13T08:21:11;8.20;;;6.90;;
5460;SDS011;2753;49.196;8.286;2022-09-13T08:23:38;15.13;;;7.87;;
5460;SDS011;2753;49.196;8.286;2022-09-13T08:26:04;8.80;;;7.03;;
5460;SDS011;2753;49.196;8.286;2022-09-13T08:28:32;11.23;;;6.33;;
5460;SDS011;2753;49.196;8.286;2022-09-13T08:31:03;12.40;;;6.87;;
5460;SDS011;2753;49.196;8.286;2022-09-13T08:33:30;11.07;;;6.80;;
5460;SDS011;2753;49.196;8.286;2022-09-13T08:35:56;12.87;;;6.93;;
5460;SDS011;2753;49.196;8.286;2022-09-13T08:38:22;11.63;;;6.30;;
5460;SDS011;2753;49.196;8.286;2022-09-13T08:40:49;12.23;;;7.40;;
5460;SDS011;2753;49.196;8.286;2022-09-13T08:49:20;10.50;;;6.60;;
5460;SDS011;2753;49.196;8.286;2022-09-13T08:51:53;7.13;;;6.40;;
5460;SDS011;2753;49.196;8.286;2022-09-13T08:54:23;12.90;;;6.40;;
5460;SDS011;2753;49.196;8.286;2022-09-13T09:04:50;10.70;;;6.30;;
5460;SDS011;2753;49.196;8.286;2022-09-13T09:07:43;8.90;;;7.27;;
5460;SDS011;2753;49.196;8.286;2022-09-13T09:10:32;7.00;;;6.30;;
5460;SDS011;2753;49.196;8.286;2022-09-13T09:15:48;6.70;;;6.00;;
5460;SDS011;2753;49.196;8.286;2022-09-13T09:18:18;6.03;;;5.47;;
5460;SDS011;2753;49.196;8.286;2022-09-13T09:20:50;6.93;;;5.30;;
5460;SDS011;2753;49.196;8.286;2022-09-13T09:26:22;13.27;;;5.63;;
5460;SDS011;2753;49.196;8.286;2022-09-13T09:29:11;9.83;;;6.50;;
5460;SDS011;2753;49.196;8.286;2022-09-13T09:37:16;15.10;;;5.70;;
5460;SDS011;2753;49.196;8.286;2022-09-13T09:39:45;7.10;;;6.10;;
5460;SDS011;2753;49.196;8.286;2022-09-13T09:42:13;12.03;;;6.53;;
5460;SDS011;2753;49.196;8.286;2022-09-13T09:44:42;10.00;;;6.40;;
5460;SDS011;2753;49.196;8.286;2022-09-13T09:47:22;7.63;;;5.30;;
5460;SDS011;2753;49.196;8.286;2022-09-13T09:50:12;13.23;;;5.20;;
5460;SDS011;2753;49.196;8.286;2022-09-13T09:55:48;6.40;;;5.20;;
5460;SDS011;2753;49.196;8.286;2022-09-13T09:58:40;7.00;;;5.23;;
5460;SDS011;2753;49.196;8.286;2022-09-13T10:06:36;5.30;;;4.37;;
5460;SDS011;2753;49.196;8.286;2022-09-13T10:09:13;9.40;;;5.17;;
5460;SDS011;2753;49.196;8.286;2022-09-13T10:11:53;9.63;;;4.77;;
5460;SDS011;2753;49.196;8.286;2022-09-13T10:22:37;3.90;;;3.17;;
5460;SDS011;2753;49.196;8.286;2022-09-13T10:25:13;7.37;;;3.60;;
5460;SDS011;2753;49.196;8.286;2022-09-13T10:27:50;7.63;;;3.57;;
5460;SDS011;2753;49.196;8.286;2022-09-13T10:30:41;6.80;;;2.67;;
5460;SDS011;2753;49.196;8.286;2022-09-13T10:35:48;10.17;;;3.00;;
5460;SDS011;2753;49.196;8.286;2022-09-13T10:38:30;5.70;;;3.57;;
5460;SDS011;2753;49.196;8.286;2022-09-13T10:40:58;3.33;;;3.13;;
5460;SDS011;2753;49.196;8.286;2022-09-13T10:43:26;3.50;;;3.20;;
5460;SDS011;2753;49.196;8.286;2022-09-13T10:45:53;3.97;;;2.70;;
5460;SDS011;2753;49.196;8.286;2022-09-13T10:48:20;4.07;;;2.60;;
5460;SDS011;2753;49.196;8.286;2022-09-13T10:50:59;4.60;;;2.90;;
5460;SDS011;2753;49.196;8.286;2022-09-13T10:53:34;3.43;;;2.50;;
5460;SDS011;2753;49.196;8.286;2022-09-13T10:56:02;7.07;;;3.23;;
5460;SDS011;2753;49.196;8.286;2022-09-13T10:58:28;3.30;;;2.47;;
5460;SDS011;2753;49.196;8.286;2022-09-13T11:11:44;2.83;;;2.63;;
5460;SDS011;2753;49.196;8.286;2022-09-13T11:25:28;2.67;;;2.57;;
5460;SDS011;2753;49.196;8.286;2022-09-13T11:45:27;12.57;;;3.00;;
5460;SDS011;2753;49.196;8.286;2022-09-13T11:59:00;6.97;;;2.23;;
5460;SDS011;2753;49.196;8.286;2022-09-13T12:01:53;4.43;;;2.60;;
5460;SDS011;2753;49.196;8.286;2022-09-13T12:04:30;7.90;;;3.00;;
5460;SDS011;2753;49.196;8.286;2022-09-13T12:07:06;4.70;;;2.80;;
5460;SDS011;2753;49.196;8.286;2022-09-13T12:09:44;3.47;;;2.47;;
5460;SDS011;2753;49.196;8.286;2022-09-13T12:12:17;4.53;;;2.63;;
5460;SDS011;2753;49.196;8.286;2022-09-13T12:17:36;2.30;;;2.20;;
5460;SDS011;2753;49.196;8.286;2022-09-13T12:20:17;2.27;;;2.17;;
5460;SDS011;2753;49.196;8.286;2022-09-13T12:22:53;3.93;;;2.40;;
5460;SDS011;2753;49.196;8.286;2022-09-13T12:25:23;6.17;;;2.47;;
5460;SDS011;2753;49.196;8.286;2022-09-13T12:27:58;5.07;;;2.30;;
5460;SDS011;2753;49.196;8.286;2022-09-13T12:30:41;2.20;;;2.00;;
5460;SDS011;2753;49.196;8.286;2022-09-13T12:33:12;4.80;;;2.60;;
5460;SDS011;2753;49.196;8.286;2022-09-13T12:35:44;13.33;;;2.67;;
5460;SDS011;2753;49.196;8.286;2022-09-13T12:38:29;2.63;;;2.50;;
5460;SDS011;2753;49.196;8.286;2022-09-13T12:49:54;3.93;;;2.17;;
5460;SDS011;2753;49.196;8.286;2022-09-13T12:58:09;10.07;;;2.93;;
5460;SDS011;2753;49.196;8.286;2022-09-13T13:06:31;6.33;;;3.17;;
5460;SDS011;2753;49.196;8.286;2022-09-13T13:09:30;8.00;;;3.40;;
5460;SDS011;2753;49.196;8.286;2022-09-13T13:12:10;3.40;;;2.70;;
5460;SDS011;2753;49.196;8.286;2022-09-13T13:14:57;1.80;;;1.70;;
5460;SDS011;2753;49.196;8.286;2022-09-13T13:17:35;2.60;;;2.50;;
5460;SDS011;2753;49.196;8.286;2022-09-13T13:23:26;3.40;;;3.10;;
5460;SDS011;2753;49.196;8.286;2022-09-13T13:31:37;3.33;;;2.30;;
5460;SDS011;2753;49.196;8.286;2022-09-13T13:39:07;2.90;;;1.83;;
5460;SDS011;2753;49.196;8.286;2022-09-13T13:41:52;3.00;;;1.60;;
5460;SDS011;2753;49.196;8.286;2022-09-13T13:46:54;3.50;;;1.40;;
5460;SDS011;2753;49.196;8.286;2022-09-13T13:57:22;1.40;;;1.30;;
5460;SDS011;2753;49.196;8.286;2022-09-13T13:59:52;3.87;;;1.20;;
5460;SDS011;2753;49.196;8.286;2022-09-13T14:02:33;1.83;;;1.33;;
5460;SDS011;2753;49.196;8.286;2022-09-13T14:19:07;3.33;;;1.10;;
5460;SDS011;2753;49.196;8.286;2022-09-13T14:21:33;3.27;;;1.23;;
5460;SDS011;2753;49.196;8.286;2022-09-13T14:24:06;2.47;;;0.90;;
5460;SDS011;2753;49.196;8.286;2022-09-13T14:26:51;1.17;;;0.90;;
5460;SDS011;2753;49.196;8.286;2022-09-13T14:29:21;5.40;;;1.10;;
5460;SDS011;2753;49.196;8.286;2022-09-13T14:31:50;3.00;;;1.00;;
5460;SDS011;2753;49.196;8.286;2022-09-13T14:34:27;1.10;;;1.00;;
5460;SDS011;2753;49.196;8.286;2022-09-13T14:36:56;2.70;;;1.13;;
5460;SDS011;2753;49.196;8.286;2022-09-13T14:39:24;1.20;;;1.10;;
5460;SDS011;2753;49.196;8.286;2022-09-13T14:41:57;2.40;;;1.17;;
5460;SDS011;2753;49.196;8.286;2022-09-13T14:44:24;2.07;;;0.90;;
5460;SDS011;2753;49.196;8.286;2022-09-13T14:47:11;1.07;;;0.97;;
5460;SDS011;2753;49.196;8.286;2022-09-13T14:49:46;2.07;;;0.57;;
5460;SDS011;2753;49.196;8.286;2022-09-13T14:54:56;1.97;;;1.00;;
5460;SDS011;2753;49.196;8.286;2022-09-13T14:57:29;5.40;;;1.20;;
5460;SDS011;2753;49.196;8.286;2022-09-13T15:02:49;1.27;;;1.17;;
5460;SDS011;2753;49.196;8.286;2022-09-13T15:05:16;1.40;;;1.30;;
5460;SDS011;2753;49.196;8.286;2022-09-13T15:07:43;3.17;;;1.30;;
5460;SDS011;2753;49.196;8.286;2022-09-13T15:15:40;4.03;;;1.37;;
5460;SDS011;2753;49.196;8.286;2022-09-13T15:23:17;1.20;;;1.20;;
5460;SDS011;2753;49.196;8.286;2022-09-13T15:25:49;1.77;;;1.40;;
5460;SDS011;2753;49.196;8.286;2022-09-13T15:31:08;2.23;;;1.50;;
5460;SDS011;2753;49.196;8.286;2022-09-13T15:33:36;3.20;;;1.53;;
5460;SDS011;2753;49.196;8.286;2022-09-13T15:41:37;2.67;;;1.37;;
5460;SDS011;2753;49.196;8.286;2022-09-13T15:44:05;1.33;;;1.33;;
5460;SDS011;2753;49.196;8.286;2022-09-13T15:46:42;3.03;;;1.43;;
5460;SDS011;2753;49.196;8.286;2022-09-13T15:49:14;1.77;;;1.57;;
5460;SDS011;2753;49.196;8.286;2022-09-13T15:51:42;3.17;;;1.50;;
5460;SDS011;2753;49.196;8.286;2022-09-13T15:54:15;8.70;;;1.30;;
5460;SDS011;2753;49.196;8.286;2022-09-13T15:56:43;2.60;;;1.60;;
5460;SDS011;2753;49.196;8.286;2022-09-13T15:59:13;3.80;;;1.63;;
5460;SDS011;2753;49.196;8.286;2022-09-13T16:01:40;1.57;;;1.47;;
5460;SDS011;2753;49.196;8.286;2022-09-13T16:04:06;8.13;;;1.70;;
5460;SDS011;2753;49.196;8.286;2022-09-13T16:06:32;1.90;;;1.63;;
5460;SDS011;2753;49.196;8.286;2022-09-13T16:08:58;3.37;;;1.33;;
5460;SDS011;2753;49.196;8.286;2022-09-13T16:11:25;5.20;;;2.63;;
5460;SDS011;2753;49.196;8.286;2022-09-13T16:13:51;4.90;;;2.50;;
5460;SDS011;2753;49.196;8.286;2022-09-13T16:16:17;2.20;;;1.57;;
5460;SDS011;2753;49.196;8.286;2022-09-13T16:18:42;4.23;;;1.83;;
5460;SDS011;2753;49.196;8.286;2022-09-13T16:21:08;3.33;;;1.93;;
5460;SDS011;2753;49.196;8.286;2022-09-13T16:23:34;3.13;;;2.30;;
5460;SDS011;2753;49.196;8.286;2022-09-13T16:26:00;1.80;;;1.70;;
5460;SDS011;2753;49.196;8.286;2022-09-13T16:28:28;1.83;;;1.43;;
5460;SDS011;2753;49.196;8.286;2022-09-13T16:30:55;8.50;;;1.63;;
5460;SDS011;2753;49.196;8.286;2022-09-13T16:33:21;1.67;;;1.50;;
5460;SDS011;2753;49.196;8.286;2022-09-13T16:35:46;2.80;;;1.30;;
5460;SDS011;2753;49.196;8.286;2022-09-13T16:38:12;1.80;;;1.70;;
5460;SDS011;2753;49.196;8.286;2022-09-13T16:40:38;3.93;;;2.03;;
5460;SDS011;2753;49.196;8.286;2022-09-13T16:43:09;3.63;;;1.77;;
5460;SDS011;2753;49.196;8.286;2022-09-13T16:45:37;4.93;;;1.50;;
5460;SDS011;2753;49.196;8.286;2022-09-13T16:48:04;1.93;;;1.43;;
5460;SDS011;2753;49.196;8.286;2022-09-13T16:50:30;2.70;;;2.10;;
5460;SDS011;2753;49.196;8.286;2022-09-13T16:52:56;1.93;;;1.60;;
5460;SDS011;2753;49.196;8.286;2022-09-13T16:55:22;4.70;;;1.50;;
5460;SDS011;2753;49.196;8.286;2022-09-13T16:57:49;1.60;;;1.50;;
5460;SDS011;2753;49.196;8.286;2022-09-13T17:00:16;6.10;;;1.67;;
5460;SDS011;2753;49.196;8.286;2022-09-13T17:02:44;7.80;;;1.83;;
5460;SDS011;2753;49.196;8.286;2022-09-13T17:05:10;5.80;;;1.90;;
5460;SDS011;2753;49.196;8.286;2022-09-13T17:07:37;10.03;;;1.97;;
5460;SDS011;2753;49.196;8.286;2022-09-13T17:10:04;4.40;;;1.63;;
5460;SDS011;2753;49.196;8.286;2022-09-13T17:12:31;8.00;;;2.23;;
5460;SDS011;2753;49.196;8.286;2022-09-13T17:14:57;8.50;;;2.10;;
5460;SDS011;2753;49.196;8.286;2022-09-13T17:17:24;8.37;;;1.63;;
5460;SDS011;2753;49.196;8.286;2022-09-13T17:19:50;7.07;;;2.23;;
5460;SDS011;2753;49.196;8.286;2022-09-13T17:22:16;6.53;;;2.30;;
5460;SDS011;2753;49.196;8.286;2022-09-13T17:24:42;4.97;;;2.13;;
5460;SDS011;2753;49.196;8.286;2022-09-13T17:27:08;8.33;;;2.20;;
5460;SDS011;2753;49.196;8.286;2022-09-13T17:29:34;18.23;;;2.50;;
5460;SDS011;2753;49.196;8.286;2022-09-13T17:32:00;7.63;;;2.20;;
5460;SDS011;2753;49.196;8.286;2022-09-13T17:34:28;2.23;;;2.00;;
5460;SDS011;2753;49.196;8.286;2022-09-13T17:36:56;5.03;;;2.13;;
5460;SDS011;2753;49.196;8.286;2022-09-13T17:39:22;4.17;;;2.67;;
5460;SDS011;2753;49.196;8.286;2022-09-13T17:41:48;7.57;;;2.80;;
5460;SDS011;2753;49.196;8.286;2022-09-13T17:44:15;8.40;;;2.27;;
5460;SDS011;2753;49.196;8.286;2022-09-13T17:46:41;2.50;;;2.30;;
5460;SDS011;2753;49.196;8.286;2022-09-13T17:49:06;6.37;;;2.60;;
5460;SDS011;2753;49.196;8.286;2022-09-13T17:51:33;13.83;;;2.87;;
5460;SDS011;2753;49.196;8.286;2022-09-13T17:54:05;5.70;;;2.40;;
5460;SDS011;2753;49.196;8.286;2022-09-13T17:56:38;7.40;;;2.40;;
5460;SDS011;2753;49.196;8.286;2022-09-13T18:01:40;3.37;;;1.90;;
5460;SDS011;2753;49.196;8.286;2022-09-13T18:04:07;11.33;;;2.20;;
5460;SDS011;2753;49.196;8.286;2022-09-13T18:06:35;7.40;;;2.77;;
5460;SDS011;2753;49.196;8.286;2022-09-13T18:09:02;4.77;;;2.53;;
5460;SDS011;2753;49.196;8.286;2022-09-13T18:11:28;5.07;;;2.00;;
5460;SDS011;2753;49.196;8.286;2022-09-13T18:13:54;13.10;;;2.90;;
5460;SDS011;2753;49.196;8.286;2022-09-13T18:16:21;9.67;;;3.13;;
5460;SDS011;2753;49.196;8.286;2022-09-13T18:18:49;4.00;;;3.00;;
5460;SDS011;2753;49.196;8.286;2022-09-13T18:21:16;4.90;;;2.60;;
5460;SDS011;2753;49.196;8.286;2022-09-13T18:23:44;7.57;;;2.80;;
5460;SDS011;2753;49.196;8.286;2022-09-13T18:26:16;5.67;;;2.80;;
5460;SDS011;2753;49.196;8.286;2022-09-13T18:28:44;10.07;;;3.07;;
5460;SDS011;2753;49.196;8.286;2022-09-13T18:31:14;9.73;;;3.17;;
5460;SDS011;2753;49.196;8.286;2022-09-13T18:33:41;9.23;;;3.73;;
5460;SDS011;2753;49.196;8.286;2022-09-13T18:36:09;3.43;;;3.13;;
5460;SDS011;2753;49.196;8.286;2022-09-13T18:38:37;9.57;;;3.57;;
5460;SDS011;2753;49.196;8.286;2022-09-13T18:43:36;6.97;;;3.33;;
5460;SDS011;2753;49.196;8.286;2022-09-13T18:46:05;4.80;;;4.27;;
5460;SDS011;2753;49.196;8.286;2022-09-13T18:48:34;12.77;;;4.07;;
5460;SDS011;2753;49.196;8.286;2022-09-13T18:51:05;10.27;;;4.20;;
5460;SDS011;2753;49.196;8.286;2022-09-13T18:53:33;12.07;;;4.20;;
5460;SDS011;2753;49.196;8.286;2022-09-13T18:56:00;8.80;;;4.13;;
5460;SDS011;2753;49.196;8.286;2022-09-13T18:58:31;11.50;;;4.93;;
5460;SDS011;2753;49.196;8.286;2022-09-13T19:01:08;6.47;;;4.10;;
5460;SDS011;2753;49.196;8.286;2022-09-13T19:03:36;17.13;;;4.30;;
5460;SDS011;2753;49.196;8.286;2022-09-13T19:06:22;8.17;;;4.90;;
5460;SDS011;2753;49.196;8.286;2022-09-13T19:08:54;8.33;;;4.63;;
5460;SDS011;2753;49.196;8.286;2022-09-13T19:11:21;7.53;;;4.37;;
5460;SDS011;2753;49.196;8.286;2022-09-13T19:13:48;11.50;;;4.93;;
5460;SDS011;2753;49.196;8.286;2022-09-13T19:16:15;8.87;;;5.00;;
5460;SDS011;2753;49.196;8.286;2022-09-13T19:18:43;5.50;;;4.93;;
5460;SDS011;2753;49.196;8.286;2022-09-13T19:21:21;7.07;;;4.90;;
5460;SDS011;2753;49.196;8.286;2022-09-13T19:23:51;6.30;;;5.43;;
5460;SDS011;2753;49.196;8.286;2022-09-13T19:28:51;8.43;;;5.00;;
5460;SDS011;2753;49.196;8.286;2022-09-13T19:31:21;10.23;;;5.27;;
5460;SDS011;2753;49.196;8.286;2022-09-13T19:33:49;8.33;;;5.07;;
5460;SDS011;2753;49.196;8.286;2022-09-13T19:36:16;5.77;;;5.17;;
5460;SDS011;2753;49.196;8.286;2022-09-13T19:38:53;17.10;;;5.67;;
5460;SDS011;2753;49.196;8.286;2022-09-13T19:41:22;7.17;;;6.00;;
5460;SDS011;2753;49.196;8.286;2022-09-13T19:43:51;7.80;;;5.33;;
5460;SDS011;2753;49.196;8.286;2022-09-13T19:46:20;17.30;;;5.70;;
5460;SDS011;2753;49.196;8.286;2022-09-13T19:48:48;9.83;;;5.80;;
5460;SDS011;2753;49.196;8.286;2022-09-13T19:51:19;10.07;;;5.90;;
5460;SDS011;2753;49.196;8.286;2022-09-13T19:53:56;16.37;;;5.80;;
5460;SDS011;2753;49.196;8.286;2022-09-13T19:56:27;10.57;;;6.27;;
5460;SDS011;2753;49.196;8.286;2022-09-13T19:58:59;9.53;;;5.73;;
5460;SDS011;2753;49.196;8.286;2022-09-13T20:01:33;12.13;;;5.90;;